createdAt,value
2023-02-05T00:01:08.885Z,-7.85
2023-02-05T00:03:42.788Z,-7.88
2023-02-05T00:06:10.891Z,-7.91
2023-02-05T00:08:38.775Z,-7.94
2023-02-05T00:11:10.003Z,-7.97
2023-02-05T00:13:41.841Z,-8.00
2023-02-05T00:16:17.119Z,-8.03
2023-02-05T00:18:46.002Z,-8.07
2023-02-05T00:21:14.853Z,-8.12
2023-02-05T00:23:43.283Z,-8.16
2023-02-05T00:26:13.510Z,-8.20
2023-02-05T00:28:42.593Z,-8.24
2023-02-05T00:31:13.799Z,-8.29
2023-02-05T00:33:42.868Z,-8.32
2023-02-05T00:36:12.947Z,-8.35
2023-02-05T00:38:43.282Z,-8.36
2023-02-05T00:41:12.193Z,-8.34
2023-02-05T00:43:41.498Z,-8.31
2023-02-05T00:46:10.816Z,-8.26
2023-02-05T00:48:40.111Z,-8.22
2023-02-05T00:51:10.708Z,-8.17
2023-02-05T00:53:38.761Z,-8.10
2023-02-05T00:56:07.061Z,-8.06
2023-02-05T00:58:36.951Z,-7.99
2023-02-05T01:01:06.152Z,-7.93
2023-02-05T01:03:34.580Z,-7.85
2023-02-05T01:06:03.511Z,-7.77
2023-02-05T01:08:32.101Z,-7.70
2023-02-05T01:11:01.361Z,-7.63
2023-02-05T01:13:29.402Z,-7.56
2023-02-05T01:15:57.486Z,-7.51
2023-02-05T01:18:25.549Z,-7.45
2023-02-05T01:20:53.632Z,-7.39
2023-02-05T01:23:21.874Z,-7.33
2023-02-05T01:25:49.890Z,-7.29
2023-02-05T01:28:19.143Z,-7.23
2023-02-05T01:30:49.518Z,-7.21
2023-02-05T01:33:19.400Z,-7.15
2023-02-05T01:35:47.395Z,-7.11
2023-02-05T01:38:15.971Z,-7.07
2023-02-05T01:40:44.183Z,-7.05
2023-02-05T01:43:18.087Z,-7.02
2023-02-05T01:45:51.072Z,-6.98
2023-02-05T01:48:25.106Z,-6.96
2023-02-05T01:50:57.388Z,-6.93
2023-02-05T01:53:30.073Z,-6.91
2023-02-05T01:56:01.564Z,-6.89
2023-02-05T01:58:40.844Z,-6.87
2023-02-05T02:01:08.866Z,-6.85
2023-02-05T02:03:38.640Z,-6.83
2023-02-05T02:06:06.885Z,-6.81
2023-02-05T02:08:34.975Z,-6.78
2023-02-05T02:11:06.609Z,-6.77
2023-02-05T02:13:36.972Z,-6.74
2023-02-05T02:16:07.955Z,-6.73
2023-02-05T02:18:38.204Z,-6.72
2023-02-05T02:21:28.827Z,-6.71
2023-02-05T02:24:17.198Z,-6.69
2023-02-05T02:27:12.781Z,-6.68
2023-02-05T02:29:58.830Z,-6.66
2023-02-05T02:32:41.319Z,-6.67
2023-02-05T02:35:36.780Z,-6.66
2023-02-05T02:38:17.141Z,-6.64
2023-02-05T02:40:52.248Z,-6.62
2023-02-05T02:43:34.583Z,-6.58
2023-02-05T02:46:08.317Z,-6.56
2023-02-05T02:48:39.939Z,-6.54
2023-02-05T02:51:10.227Z,-6.51
2023-02-05T02:53:45.262Z,-6.50
2023-02-05T02:56:16.509Z,-6.48
2023-02-05T02:58:53.214Z,-6.45
2023-02-05T03:01:25.744Z,-6.44
2023-02-05T03:04:08.567Z,-6.42
2023-02-05T03:06:40.119Z,-6.40
2023-02-05T03:09:22.328Z,-6.38
2023-02-05T03:11:50.362Z,-6.36
2023-02-05T03:14:19.685Z,-6.34
2023-02-05T03:16:47.930Z,-6.33
2023-02-05T03:19:16.599Z,-6.32
2023-02-05T03:21:50.535Z,-6.31
2023-02-05T03:24:18.625Z,-6.29
2023-02-05T03:26:46.639Z,-6.27
2023-02-05T03:29:27.392Z,-6.25
2023-02-05T03:32:19.434Z,-6.23
2023-02-05T03:34:53.776Z,-6.21
2023-02-05T03:37:31.419Z,-6.19
2023-02-05T03:40:05.133Z,-6.18
2023-02-05T03:42:42.918Z,-6.15
2023-02-05T03:45:17.933Z,-6.13
2023-02-05T03:48:15.956Z,-6.10
2023-02-05T03:50:47.891Z,-6.06
2023-02-05T03:53:30.945Z,-6.04
2023-02-05T03:56:35.547Z,-6.03
2023-02-05T03:59:05.821Z,-6.00
2023-02-05T04:05:22.925Z,-5.96
2023-02-05T04:07:52.469Z,-5.96
2023-02-05T04:10:22.378Z,-5.95
2023-02-05T04:12:51.516Z,-5.95
2023-02-05T04:15:20.321Z,-5.94
2023-02-05T04:17:51.585Z,-5.94
2023-02-05T04:20:19.941Z,-5.93
2023-02-05T04:22:48.303Z,-5.92
2023-02-05T04:25:17.165Z,-5.92
2023-02-05T04:27:46.407Z,-5.91
2023-02-05T04:34:37.904Z,-5.89
2023-02-05T04:37:09.765Z,-5.91
2023-02-05T04:39:38.045Z,-5.92
2023-02-05T04:42:06.098Z,-5.92
2023-02-05T04:44:34.340Z,-5.91
2023-02-05T04:47:02.357Z,-5.91
2023-02-05T04:49:32.586Z,-5.92
2023-02-05T04:52:01.161Z,-5.93
2023-02-05T04:54:30.019Z,-5.92
2023-02-05T04:56:58.120Z,-5.92
2023-02-05T04:59:26.475Z,-5.91
2023-02-05T05:01:54.510Z,-5.92
2023-02-05T05:04:23.151Z,-5.92
2023-02-05T05:06:51.131Z,-5.94
2023-02-05T05:09:21.077Z,-5.93
2023-02-05T05:11:49.189Z,-5.92
2023-02-05T05:14:17.133Z,-5.94
2023-02-05T05:16:46.803Z,-5.92
2023-02-05T05:19:14.818Z,-5.93
2023-02-05T05:21:42.944Z,-5.95
2023-02-05T05:24:11.189Z,-5.95
2023-02-05T05:26:43.875Z,-5.96
2023-02-05T05:29:12.754Z,-5.95
2023-02-05T05:31:41.737Z,-5.94
2023-02-05T05:34:09.918Z,-5.93
2023-02-05T05:36:40.237Z,-5.95
2023-02-05T05:39:26.961Z,-5.96
2023-02-05T05:42:13.451Z,-5.98
2023-02-05T05:44:42.474Z,-5.98
2023-02-05T05:47:10.459Z,-5.99
2023-02-05T05:49:38.449Z,-5.97
2023-02-05T05:52:06.390Z,-5.96
2023-02-05T05:54:34.383Z,-5.95
2023-02-05T05:57:02.490Z,-5.94
2023-02-05T05:59:31.230Z,-5.94
2023-02-05T06:02:04.285Z,-5.94
2023-02-05T06:04:32.419Z,-5.94
2023-02-05T06:07:02.376Z,-5.96
2023-02-05T06:09:30.618Z,-5.95
2023-02-05T06:11:58.752Z,-5.95
2023-02-05T06:14:26.883Z,-5.94
2023-02-05T06:16:55.991Z,-5.92
2023-02-05T06:19:24.241Z,-5.92
2023-02-05T06:21:52.526Z,-5.92
2023-02-05T06:24:21.467Z,-5.91
2023-02-05T06:26:49.559Z,-5.88
2023-02-05T06:29:19.110Z,-5.87
2023-02-05T06:31:47.541Z,-5.83
2023-02-05T06:34:15.581Z,-5.80
2023-02-05T06:36:43.724Z,-5.78
2023-02-05T06:39:11.802Z,-5.74
2023-02-05T06:41:40.082Z,-5.72
2023-02-05T06:44:08.240Z,-5.70
2023-02-05T06:46:36.472Z,-5.68
2023-02-05T06:49:04.601Z,-5.66
2023-02-05T06:51:32.948Z,-5.64
2023-02-05T06:54:01.457Z,-5.62
2023-02-05T06:56:29.596Z,-5.59
2023-02-05T06:58:57.601Z,-5.56
2023-02-05T07:01:25.813Z,-5.53
2023-02-05T07:03:56.242Z,-5.50
2023-02-05T07:06:25.298Z,-5.47
2023-02-05T07:08:53.792Z,-5.43
2023-02-05T07:11:23.648Z,-5.39
2023-02-05T07:13:52.605Z,-5.36
2023-02-05T07:16:20.944Z,-5.31
2023-02-05T07:18:48.914Z,-5.28
2023-02-05T07:21:17.527Z,-5.24
2023-02-05T07:23:46.225Z,-5.19
2023-02-05T07:26:16.532Z,-5.14
2023-02-05T07:28:45.612Z,-5.09
2023-02-05T07:31:16.494Z,-5.03
2023-02-05T07:33:46.723Z,-4.96
2023-02-05T07:36:17.762Z,-4.87
2023-02-05T07:38:47.906Z,-4.77
2023-02-05T07:41:17.718Z,-4.70
2023-02-05T07:43:46.253Z,-4.68
2023-02-05T07:46:15.313Z,-4.62
2023-02-05T07:48:43.479Z,-4.56
2023-02-05T07:51:30.113Z,-4.48
2023-02-05T07:53:58.291Z,-4.38
2023-02-05T07:56:26.462Z,-4.29
2023-02-05T07:58:54.835Z,-4.19
2023-02-05T08:01:22.885Z,-4.13
2023-02-05T08:03:50.986Z,-4.06
2023-02-05T08:06:19.007Z,-3.97
2023-02-05T08:08:47.044Z,-3.91
2023-02-05T08:11:16.498Z,-3.82
2023-02-05T08:13:45.836Z,-3.76
2023-02-05T08:16:15.945Z,-3.64
2023-02-05T08:18:49.245Z,-3.53
2023-02-05T08:21:19.780Z,-3.48
2023-02-05T08:23:49.301Z,-3.47
2023-02-05T08:26:18.743Z,-3.42
2023-02-05T08:28:46.853Z,-3.29
2023-02-05T08:31:18.904Z,-2.88
2023-02-05T08:33:47.968Z,-2.47
2023-02-05T08:36:15.985Z,-2.33
2023-02-05T08:38:44.100Z,-2.27
2023-02-05T08:41:12.895Z,-2.26
2023-02-05T08:43:49.689Z,-2.33
2023-02-05T08:46:21.075Z,-2.41
2023-02-05T08:48:49.586Z,-2.41
2023-02-05T08:51:19.752Z,-2.54
2023-02-05T08:53:47.967Z,-2.45
2023-02-05T08:56:19.233Z,-2.38
2023-02-05T08:58:48.652Z,-2.34
2023-02-05T09:01:17.617Z,-2.28
2023-02-05T09:03:46.396Z,-2.25
2023-02-05T09:06:15.931Z,-2.24
2023-02-05T09:08:44.082Z,-2.20
2023-02-05T09:11:13.547Z,-2.17
2023-02-05T09:13:41.799Z,-2.19
2023-02-05T09:16:12.850Z,-2.19
2023-02-05T09:18:41.209Z,-2.14
2023-02-05T09:21:11.024Z,-2.13
2023-02-05T09:23:39.372Z,-2.19
2023-02-05T09:26:09.420Z,-2.28
2023-02-05T09:28:38.694Z,-2.27
2023-02-05T09:31:09.225Z,-2.22
2023-02-05T09:33:37.897Z,-2.19
2023-02-05T09:36:13.032Z,-2.18
2023-02-05T09:38:42.036Z,-2.18
2023-02-05T09:41:13.279Z,-2.08
2023-02-05T09:44:17.203Z,-2.00
2023-02-05T09:46:56.546Z,-1.86
2023-02-05T09:49:38.747Z,-1.84
2023-02-05T09:52:27.312Z,-1.85
2023-02-05T09:55:01.447Z,-1.82
2023-02-05T09:57:34.341Z,-1.75
2023-02-05T10:00:05.654Z,-1.68
2023-02-05T10:02:51.010Z,-1.66
2023-02-05T10:05:24.972Z,-1.58
2023-02-05T10:08:22.913Z,-1.49
2023-02-05T10:10:54.321Z,-1.33
2023-02-05T10:13:31.444Z,-1.27
2023-02-05T10:16:29.838Z,-1.46
2023-02-05T10:19:16.656Z,-1.77
2023-02-05T10:21:47.865Z,-1.83
2023-02-05T10:24:41.364Z,-1.88
2023-02-05T10:27:19.160Z,-1.92
2023-02-05T10:30:07.117Z,-1.94
2023-02-05T10:32:57.642Z,-2.01
2023-02-05T10:35:44.438Z,-2.25
2023-02-05T10:38:39.427Z,-2.33
2023-02-05T10:41:12.335Z,-2.26
2023-02-05T10:44:00.292Z,-2.11
2023-02-05T10:46:35.720Z,-2.13
2023-02-05T10:49:12.507Z,-2.11
2023-02-05T10:51:43.769Z,-2.12
2023-02-05T10:54:26.429Z,-2.22
2023-02-05T10:56:58.955Z,-2.20
2023-02-05T10:59:36.570Z,-2.14
2023-02-05T11:04:46.008Z,-1.89
2023-02-05T11:07:33.042Z,-1.83
2023-02-05T11:10:15.594Z,-1.73
2023-02-05T11:12:46.823Z,-1.62
2023-02-05T11:15:33.705Z,-1.61
2023-02-05T11:18:05.527Z,-1.62
2023-02-05T11:20:35.758Z,-1.62
2023-02-05T11:23:06.647Z,-1.60
2023-02-05T11:25:35.563Z,-1.60
2023-02-05T11:28:05.792Z,-1.65
2023-02-05T11:30:54.304Z,-1.66
2023-02-05T11:33:22.824Z,-1.67
2023-02-05T11:35:57.028Z,-1.71
2023-02-05T11:38:33.538Z,-1.78
2023-02-05T11:41:06.864Z,-1.81
2023-02-05T11:43:38.334Z,-1.79
2023-02-05T11:46:16.493Z,-1.76
2023-02-05T11:48:56.775Z,-1.77
2023-02-05T11:51:29.770Z,-1.77
2023-02-05T11:54:01.362Z,-1.75
2023-02-05T11:56:29.621Z,-1.69
2023-02-05T11:59:19.403Z,-1.66
2023-02-05T12:01:48.410Z,-1.75
2023-02-05T12:04:20.523Z,-1.62
2023-02-05T12:07:15.483Z,-1.62
2023-02-05T12:09:43.730Z,-1.55
2023-02-05T12:12:28.878Z,-1.49
2023-02-05T12:15:15.625Z,-1.52
2023-02-05T12:18:01.855Z,-1.42
2023-02-05T12:20:42.883Z,-1.35
2023-02-05T12:23:48.196Z,-1.35
2023-02-05T12:26:40.636Z,-1.41
2023-02-05T12:29:44.163Z,-1.42
2023-02-05T12:32:27.680Z,-1.37
2023-02-05T12:34:58.919Z,-1.57
2023-02-05T12:37:52.183Z,-1.60
2023-02-05T12:40:30.046Z,-1.46
2023-02-05T12:43:02.862Z,-1.48
2023-02-05T12:45:39.273Z,-1.45
2023-02-05T12:48:39.063Z,-1.53
2023-02-05T12:51:19.827Z,-1.50
2023-02-05T12:54:13.142Z,-1.51
2023-02-05T12:56:55.241Z,-1.51
2023-02-05T13:00:03.509Z,-1.68
2023-02-05T13:02:49.893Z,-1.74
2023-02-05T13:05:56.492Z,-1.83
2023-02-05T13:08:45.575Z,-2.08
2023-02-05T13:11:25.441Z,-2.07
2023-02-05T13:14:11.913Z,-1.96
2023-02-05T13:16:54.156Z,-1.91
2023-02-05T13:19:41.135Z,-1.86
2023-02-05T13:22:39.418Z,-1.82
2023-02-05T13:25:38.942Z,-1.82
2023-02-05T13:28:41.088Z,-1.80
2023-02-05T13:31:25.116Z,-1.80
2023-02-05T13:33:56.717Z,-1.77
2023-02-05T13:36:24.806Z,-1.75
2023-02-05T13:39:11.563Z,-1.76
2023-02-05T13:42:01.124Z,-1.83
2023-02-05T13:45:01.461Z,-1.93
2023-02-05T13:47:47.627Z,-1.95
2023-02-05T13:50:28.188Z,-2.02
2023-02-05T13:53:14.453Z,-2.06
2023-02-05T13:56:14.378Z,-2.16
2023-02-05T13:58:49.605Z,-2.16
2023-02-05T14:01:18.244Z,-2.19
2023-02-05T14:03:59.536Z,-2.22
2023-02-05T14:06:41.159Z,-2.24
2023-02-05T14:09:24.752Z,-2.27
2023-02-05T14:11:59.291Z,-2.28
2023-02-05T14:14:34.926Z,-2.33
2023-02-05T14:17:28.861Z,-2.37
2023-02-05T14:19:58.960Z,-2.40
2023-02-05T14:22:42.480Z,-2.43
2023-02-05T14:25:38.132Z,-2.49
2023-02-05T14:28:09.013Z,-2.52
2023-02-05T14:30:51.947Z,-2.55
2023-02-05T14:33:26.269Z,-2.59
2023-02-05T14:36:10.860Z,-2.62
2023-02-05T14:38:42.194Z,-2.63
2023-02-05T14:41:14.648Z,-2.64
2023-02-05T14:43:46.737Z,-2.67
2023-02-05T14:46:25.535Z,-2.73
2023-02-05T14:48:58.240Z,-2.78
2023-02-05T14:51:31.479Z,-2.80
2023-02-05T14:54:05.336Z,-2.84
2023-02-05T14:56:46.791Z,-2.86
2023-02-05T14:59:20.940Z,-2.89
2023-02-05T15:01:54.267Z,-2.95
2023-02-05T15:04:49.630Z,-2.97
2023-02-05T15:07:27.721Z,-3.03
2023-02-05T15:10:18.437Z,-3.08
2023-02-05T15:12:49.674Z,-3.09
2023-02-05T15:15:28.006Z,-3.14
2023-02-05T15:18:02.615Z,-3.18
2023-02-05T15:20:36.060Z,-3.21
2023-02-05T15:23:06.477Z,-3.27
2023-02-05T15:25:42.666Z,-3.28
2023-02-05T15:28:29.613Z,-3.31
2023-02-05T15:31:17.473Z,-3.33
2023-02-05T15:33:58.770Z,-3.35
2023-02-05T15:36:46.279Z,-3.37
2023-02-05T15:39:30.440Z,-3.41
2023-02-05T15:42:01.554Z,-3.43
2023-02-05T15:44:31.979Z,-3.44
2023-02-05T15:47:04.722Z,-3.45
2023-02-05T15:49:46.076Z,-3.46
2023-02-05T15:52:23.336Z,-3.46
2023-02-05T15:54:55.562Z,-3.47
2023-02-05T15:57:29.756Z,-3.49
2023-02-05T16:00:00.853Z,-3.49
2023-02-05T16:02:57.530Z,-3.51
2023-02-05T16:05:27.500Z,-3.52
2023-02-05T16:07:57.563Z,-3.53
2023-02-05T16:10:28.995Z,-3.53
2023-02-05T16:13:14.341Z,-3.55
2023-02-05T16:15:45.472Z,-3.58
2023-02-05T16:18:20.516Z,-3.59
2023-02-05T16:20:57.632Z,-3.62
2023-02-05T16:23:31.909Z,-3.64
2023-02-05T16:26:15.896Z,-3.69
2023-02-05T16:28:58.811Z,-3.73
2023-02-05T16:31:29.977Z,-3.76
2023-02-05T16:34:05.710Z,-3.78
2023-02-05T16:36:38.897Z,-3.81
2023-02-05T16:39:30.125Z,-3.82
2023-02-05T16:42:17.542Z,-3.85
2023-02-05T16:44:48.710Z,-3.88
2023-02-05T16:47:20.205Z,-3.91
2023-02-05T16:49:49.728Z,-3.95
2023-02-05T16:52:36.460Z,-3.96
2023-02-05T16:55:07.652Z,-3.99
2023-02-05T16:57:38.942Z,-4.01
2023-02-05T17:00:23.952Z,-4.03
2023-02-05T17:02:59.107Z,-4.05
2023-02-05T17:05:29.366Z,-4.08
2023-02-05T17:08:09.150Z,-4.11
2023-02-05T17:10:52.912Z,-4.12
2023-02-05T17:13:42.516Z,-4.14
2023-02-05T17:16:30.941Z,-4.19
2023-02-05T17:19:00.957Z,-4.22
2023-02-05T17:21:34.515Z,-4.24
2023-02-05T17:24:06.380Z,-4.27
2023-02-05T17:26:39.535Z,-4.29
2023-02-05T17:29:13.928Z,-4.32
2023-02-05T17:31:42.305Z,-4.32
2023-02-05T17:34:11.810Z,-4.34
2023-02-05T17:36:39.832Z,-4.36
2023-02-05T17:39:07.988Z,-4.38
2023-02-05T17:41:55.977Z,-4.39
2023-02-05T17:44:24.357Z,-4.41
2023-02-05T17:46:54.395Z,-4.43
2023-02-05T17:49:22.778Z,-4.45
2023-02-05T17:51:50.949Z,-4.44
2023-02-05T17:54:21.858Z,-4.45
2023-02-05T17:56:51.051Z,-4.44
2023-02-05T17:59:22.418Z,-4.44
2023-02-05T18:01:51.871Z,-4.45
2023-02-05T18:04:20.373Z,-4.45
2023-02-05T18:06:49.996Z,-4.45
2023-02-05T18:09:20.478Z,-4.44
2023-02-05T18:11:48.773Z,-4.45
2023-02-05T18:14:16.929Z,-4.43
2023-02-05T18:16:45.614Z,-4.43
2023-02-05T18:19:14.083Z,-4.44
2023-02-05T18:21:42.506Z,-4.43
2023-02-05T18:24:10.542Z,-4.44
2023-02-05T18:26:38.626Z,-4.44
2023-02-05T18:29:06.737Z,-4.45
2023-02-05T18:31:35.376Z,-4.45
2023-02-05T18:34:03.575Z,-4.45
2023-02-05T18:36:31.652Z,-4.44
2023-02-05T18:38:59.794Z,-4.43
2023-02-05T18:41:28.943Z,-4.45
2023-02-05T18:43:58.433Z,-4.47
2023-02-05T18:46:26.626Z,-4.52
2023-02-05T18:48:55.790Z,-4.52
2023-02-05T18:51:24.182Z,-4.55
2023-02-05T18:53:52.313Z,-4.58
2023-02-05T18:56:26.671Z,-4.61
2023-02-05T18:59:02.443Z,-4.64
2023-02-05T19:04:42.396Z,-4.71
2023-02-05T19:07:10.467Z,-4.79
2023-02-05T19:09:38.468Z,-4.86
2023-02-05T19:12:07.011Z,-4.92
2023-02-05T19:14:35.091Z,-4.97
2023-02-05T19:17:03.291Z,-5.03
2023-02-05T19:19:32.040Z,-5.09
2023-02-05T19:22:02.127Z,-5.15
2023-02-05T19:24:30.436Z,-5.22
2023-02-05T19:27:02.097Z,-5.29
2023-02-05T19:29:30.717Z,-5.36
2023-02-05T19:31:59.070Z,-5.43
2023-02-05T19:34:27.963Z,-5.51
2023-02-05T19:36:56.138Z,-5.58
2023-02-05T19:39:25.302Z,-5.68
2023-02-05T19:41:53.486Z,-5.79
2023-02-05T19:44:21.544Z,-5.92
2023-02-05T19:46:50.510Z,-6.06
2023-02-05T19:49:21.057Z,-6.18
2023-02-05T19:51:55.296Z,-6.30
2023-02-05T19:54:23.709Z,-6.43
2023-02-05T19:56:51.973Z,-6.58
2023-02-05T19:59:21.440Z,-6.69
2023-02-05T20:01:50.058Z,-6.79
2023-02-05T20:04:24.948Z,-6.89
2023-02-05T20:06:58.878Z,-7.00
2023-02-05T20:09:27.790Z,-7.09
2023-02-05T20:11:56.865Z,-7.20
2023-02-05T20:14:25.170Z,-7.30
2023-02-05T20:16:54.154Z,-7.38
2023-02-05T20:19:22.898Z,-7.47
2023-02-05T20:21:51.189Z,-7.54
2023-02-05T20:24:19.275Z,-7.60
2023-02-05T20:26:50.284Z,-7.62
2023-02-05T20:29:36.867Z,-7.66
2023-02-05T20:32:05.585Z,-7.72
2023-02-05T20:34:35.959Z,-7.79
2023-02-05T20:37:07.438Z,-7.88
2023-02-05T20:39:39.679Z,-7.95
2023-02-05T20:42:10.700Z,-8.01
2023-02-05T20:44:39.410Z,-8.09
2023-02-05T20:47:10.690Z,-8.12
2023-02-05T20:49:40.272Z,-8.18
2023-02-05T20:52:11.902Z,-8.28
2023-02-05T20:54:41.352Z,-8.34
2023-02-05T20:57:09.602Z,-8.39
2023-02-05T20:59:38.799Z,-8.45
2023-02-05T21:02:07.365Z,-8.52
2023-02-05T21:04:36.727Z,-8.58
2023-02-05T21:07:04.954Z,-8.63
2023-02-05T21:09:33.339Z,-8.66
2023-02-05T21:12:01.501Z,-8.67
2023-02-05T21:14:29.697Z,-8.70
2023-02-05T21:16:57.677Z,-8.72
2023-02-05T21:19:25.676Z,-8.67
2023-02-05T21:21:53.907Z,-8.66
2023-02-05T21:24:22.067Z,-8.65
2023-02-05T21:26:50.358Z,-8.63
2023-02-05T21:29:21.026Z,-8.62
2023-02-05T21:31:55.910Z,-8.61
2023-02-05T21:34:28.085Z,-8.62
2023-02-05T21:36:56.651Z,-8.66
2023-02-05T21:39:25.758Z,-8.69
2023-02-05T21:41:54.536Z,-8.76
2023-02-05T21:44:23.061Z,-8.86
2023-02-05T21:46:53.354Z,-8.94
2023-02-05T21:49:22.269Z,-9.05
2023-02-05T21:51:53.573Z,-9.13
2023-02-05T21:54:25.596Z,-9.18
2023-02-05T21:56:54.551Z,-9.25
2023-02-05T21:59:22.936Z,-9.31
2023-02-05T22:01:52.080Z,-9.40
2023-02-05T22:04:21.495Z,-9.48
2023-02-05T22:06:50.220Z,-9.54
2023-02-05T22:09:18.492Z,-9.59
2023-02-05T22:11:52.606Z,-9.64
2023-02-05T22:14:20.578Z,-9.70
2023-02-05T22:16:48.715Z,-9.75
2023-02-05T22:19:17.019Z,-9.80
2023-02-05T22:21:45.409Z,-9.86
2023-02-05T22:24:16.566Z,-9.86
2023-02-05T22:26:45.796Z,-9.90
2023-02-05T22:29:16.657Z,-9.90
2023-02-05T22:31:46.623Z,-9.86
2023-02-05T22:34:14.623Z,-9.82
2023-02-05T22:36:42.852Z,-9.78
2023-02-05T22:39:11.239Z,-9.77
2023-02-05T22:41:42.684Z,-9.77
2023-02-05T22:44:11.657Z,-9.75
2023-02-05T22:46:44.583Z,-9.75
2023-02-05T22:49:15.524Z,-9.74
2023-02-05T22:51:45.290Z,-9.75
2023-02-05T22:54:15.404Z,-9.75
2023-02-05T22:56:44.508Z,-9.78
2023-02-05T22:59:13.195Z,-9.83
2023-02-05T23:01:41.378Z,-9.88
2023-02-05T23:04:10.284Z,-9.92
2023-02-05T23:06:41.079Z,-9.94
2023-02-05T23:09:16.338Z,-9.94
2023-02-05T23:11:44.832Z,-9.94
2023-02-05T23:14:15.056Z,-9.96
2023-02-05T23:16:45.744Z,-9.99
2023-02-05T23:19:20.250Z,-10.02
2023-02-05T23:21:48.980Z,-10.04
2023-02-05T23:24:18.082Z,-10.05
2023-02-05T23:26:48.659Z,-10.07
2023-02-05T23:29:17.401Z,-10.08
2023-02-05T23:31:45.759Z,-10.10
2023-02-05T23:34:14.155Z,-10.11
2023-02-05T23:36:42.237Z,-10.14
2023-02-05T23:39:10.625Z,-10.16
2023-02-05T23:41:40.288Z,-10.14
2023-02-05T23:44:13.123Z,-10.15
2023-02-05T23:46:43.186Z,-10.16
2023-02-05T23:49:11.737Z,-10.16
2023-02-05T23:51:40.407Z,-10.15
2023-02-05T23:54:10.254Z,-10.15
2023-02-05T23:56:38.315Z,-10.16
2023-02-05T23:59:07.617Z,-10.17
